Maurertown, Virginia
Current Conditions -  °F | °C
As of 3:55 AM on Wednesday 26 Nov 2014 (Local Time) from KFRR Reporting Station
Overcast Overcast  
Wind Chill: 39°   Ceiling: 4000
Heat Index: 39°   Visibility: 10mi
Dew Point: 34°   Wind: 3mph
Humidity: 81%   Direction: 30°NNE
Pressure: 30.08"   Gusts: NA
Location:  38.93°N, 78.46°W
Report Text: KFRR 260855Z AUTO 03003KT 10SM OVC040 04/01 A3008 RMK AO1 P0001
Loading
Personal Weather Stations






























Interactive Weather Map New forecast layout! Learn more

10-Day Weather Forecast

Advertisements
Track Severe Weather on mobile